sensor_id;sensor_type;location;lat;lon;timestamp;temperature;humidity
14733;DHT22;7457;50.960;6.830;2024-01-07T00:01:57;2.00;100.00
14733;DHT22;7457;50.960;6.830;2024-01-07T00:04:22;2.00;100.00
14733;DHT22;7457;50.960;6.830;2024-01-07T00:06:48;2.00;100.00
14733;DHT22;7457;50.960;6.830;2024-01-07T00:09:14;2.00;100.00
14733;DHT22;7457;50.960;6.830;2024-01-07T00:11:40;2.00;100.00
14733;DHT22;7457;50.960;6.830;2024-01-07T00:14:05;2.00;100.00
14733;DHT22;7457;50.960;6.830;2024-01-07T00:16:31;2.00;100.00
14733;DHT22;7457;50.960;6.830;2024-01-07T00:18:57;2.00;100.00
14733;DHT22;7457;50.960;6.830;2024-01-07T00:21:23;2.00;100.00
14733;DHT22;7457;50.960;6.830;2024-01-07T00:23:49;2.00;100.00
14733;DHT22;7457;50.960;6.830;2024-01-07T00:26:15;2.00;100.00
14733;DHT22;7457;50.960;6.830;2024-01-07T00:28:40;2.00;100.00
14733;DHT22;7457;50.960;6.830;2024-01-07T00:31:08;2.00;100.00
14733;DHT22;7457;50.960;6.830;2024-01-07T00:33:34;2.00;100.00
14733;DHT22;7457;50.960;6.830;2024-01-07T00:36:01;2.00;100.00
14733;DHT22;7457;50.960;6.830;2024-01-07T00:38:26;2.00;100.00
14733;DHT22;7457;50.960;6.830;2024-01-07T00:40:52;2.00;100.00
14733;DHT22;7457;50.960;6.830;2024-01-07T00:43:17;2.10;100.00
14733;DHT22;7457;50.960;6.830;2024-01-07T00:45:44;2.00;100.00
14733;DHT22;7457;50.960;6.830;2024-01-07T00:48:09;2.10;100.00
14733;DHT22;7457;50.960;6.830;2024-01-07T00:50:35;2.10;100.00
14733;DHT22;7457;50.960;6.830;2024-01-07T00:53:01;2.10;100.00
14733;DHT22;7457;50.960;6.830;2024-01-07T00:55:27;2.10;100.00
14733;DHT22;7457;50.960;6.830;2024-01-07T00:57:52;2.10;100.00
14733;DHT22;7457;50.960;6.830;2024-01-07T01:00:18;2.10;100.00
14733;DHT22;7457;50.960;6.830;2024-01-07T01:02:45;2.10;100.00
14733;DHT22;7457;50.960;6.830;2024-01-07T01:05:10;2.10;100.00
14733;DHT22;7457;50.960;6.830;2024-01-07T01:07:36;2.10;100.00
14733;DHT22;7457;50.960;6.830;2024-01-07T01:10:01;2.10;100.00
14733;DHT22;7457;50.960;6.830;2024-01-07T01:12:27;2.10;100.00
14733;DHT22;7457;50.960;6.830;2024-01-07T01:14:53;2.10;100.00
14733;DHT22;7457;50.960;6.830;2024-01-07T01:17:18;2.20;100.00
14733;DHT22;7457;50.960;6.830;2024-01-07T01:19:44;2.20;100.00
14733;DHT22;7457;50.960;6.830;2024-01-07T01:22:10;2.20;100.00
14733;DHT22;7457;50.960;6.830;2024-01-07T01:24:35;2.20;100.00
14733;DHT22;7457;50.960;6.830;2024-01-07T01:27:01;2.20;100.00
14733;DHT22;7457;50.960;6.830;2024-01-07T01:29:26;2.20;100.00
14733;DHT22;7457;50.960;6.830;2024-01-07T01:31:52;2.30;100.00
14733;DHT22;7457;50.960;6.830;2024-01-07T01:34:18;2.30;100.00
14733;DHT22;7457;50.960;6.830;2024-01-07T01:36:43;2.30;100.00
14733;DHT22;7457;50.960;6.830;2024-01-07T01:39:09;2.30;100.00
14733;DHT22;7457;50.960;6.830;2024-01-07T01:41:34;2.30;100.00
14733;DHT22;7457;50.960;6.830;2024-01-07T01:44:01;2.30;100.00
14733;DHT22;7457;50.960;6.830;2024-01-07T01:46:28;2.30;100.00
14733;DHT22;7457;50.960;6.830;2024-01-07T01:48:54;2.30;100.00
14733;DHT22;7457;50.960;6.830;2024-01-07T01:51:24;2.30;100.00
14733;DHT22;7457;50.960;6.830;2024-01-07T01:53:51;2.30;100.00
14733;DHT22;7457;50.960;6.830;2024-01-07T01:56:17;2.30;100.00
14733;DHT22;7457;50.960;6.830;2024-01-07T01:58:44;2.30;100.00
14733;DHT22;7457;50.960;6.830;2024-01-07T02:01:10;2.30;100.00
14733;DHT22;7457;50.960;6.830;2024-01-07T02:03:35;2.30;100.00
14733;DHT22;7457;50.960;6.830;2024-01-07T02:06:01;2.40;100.00
14733;DHT22;7457;50.960;6.830;2024-01-07T02:08:27;2.40;100.00
14733;DHT22;7457;50.960;6.830;2024-01-07T02:10:53;2.40;100.00
14733;DHT22;7457;50.960;6.830;2024-01-07T02:13:19;2.40;100.00
14733;DHT22;7457;50.960;6.830;2024-01-07T02:15:44;2.40;100.00
14733;DHT22;7457;50.960;6.830;2024-01-07T02:18:10;2.40;100.00
14733;DHT22;7457;50.960;6.830;2024-01-07T02:20:36;2.40;100.00
14733;DHT22;7457;50.960;6.830;2024-01-07T02:23:02;2.50;100.00
14733;DHT22;7457;50.960;6.830;2024-01-07T02:25:28;2.40;100.00
14733;DHT22;7457;50.960;6.830;2024-01-07T02:27:54;2.40;100.00
14733;DHT22;7457;50.960;6.830;2024-01-07T02:30:19;2.40;100.00
14733;DHT22;7457;50.960;6.830;2024-01-07T02:32:45;2.40;100.00
14733;DHT22;7457;50.960;6.830;2024-01-07T02:35:11;2.40;100.00
14733;DHT22;7457;50.960;6.830;2024-01-07T02:37:37;2.40;100.00
14733;DHT22;7457;50.960;6.830;2024-01-07T02:40:02;2.40;100.00
14733;DHT22;7457;50.960;6.830;2024-01-07T02:42:28;2.40;100.00
14733;DHT22;7457;50.960;6.830;2024-01-07T02:44:53;2.40;100.00
14733;DHT22;7457;50.960;6.830;2024-01-07T02:47:19;2.40;100.00
14733;DHT22;7457;50.960;6.830;2024-01-07T02:49:45;2.40;100.00
14733;DHT22;7457;50.960;6.830;2024-01-07T02:52:10;2.40;100.00
14733;DHT22;7457;50.960;6.830;2024-01-07T02:54:36;2.40;100.00
14733;DHT22;7457;50.960;6.830;2024-01-07T02:57:02;2.50;100.00
14733;DHT22;7457;50.960;6.830;2024-01-07T02:59:27;2.50;100.00
14733;DHT22;7457;50.960;6.830;2024-01-07T03:01:53;2.50;100.00
14733;DHT22;7457;50.960;6.830;2024-01-07T03:04:18;2.40;100.00
14733;DHT22;7457;50.960;6.830;2024-01-07T03:06:44;2.40;100.00
14733;DHT22;7457;50.960;6.830;2024-01-07T03:09:10;2.40;100.00
14733;DHT22;7457;50.960;6.830;2024-01-07T03:11:39;2.50;100.00
14733;DHT22;7457;50.960;6.830;2024-01-07T03:14:05;2.50;100.00
14733;DHT22;7457;50.960;6.830;2024-01-07T03:16:31;2.40;100.00
14733;DHT22;7457;50.960;6.830;2024-01-07T03:18:57;2.50;100.00
14733;DHT22;7457;50.960;6.830;2024-01-07T03:21:23;2.40;100.00
14733;DHT22;7457;50.960;6.830;2024-01-07T03:23:50;2.40;100.00
14733;DHT22;7457;50.960;6.830;2024-01-07T03:26:17;2.40;100.00
14733;DHT22;7457;50.960;6.830;2024-01-07T03:28:42;2.40;100.00
14733;DHT22;7457;50.960;6.830;2024-01-07T03:31:10;2.40;100.00
14733;DHT22;7457;50.960;6.830;2024-01-07T03:33:38;2.40;100.00
14733;DHT22;7457;50.960;6.830;2024-01-07T03:36:10;2.40;100.00
14733;DHT22;7457;50.960;6.830;2024-01-07T03:38:36;2.40;100.00
14733;DHT22;7457;50.960;6.830;2024-01-07T03:41:03;2.30;100.00
14733;DHT22;7457;50.960;6.830;2024-01-07T03:43:28;2.30;100.00
14733;DHT22;7457;50.960;6.830;2024-01-07T03:45:54;2.30;100.00
14733;DHT22;7457;50.960;6.830;2024-01-07T03:48:20;2.30;100.00
14733;DHT22;7457;50.960;6.830;2024-01-07T03:50:45;2.30;100.00
14733;DHT22;7457;50.960;6.830;2024-01-07T03:53:12;2.20;100.00
14733;DHT22;7457;50.960;6.830;2024-01-07T03:55:38;2.20;100.00
14733;DHT22;7457;50.960;6.830;2024-01-07T03:58:05;2.20;100.00
14733;DHT22;7457;50.960;6.830;2024-01-07T04:00:31;2.20;100.00
14733;DHT22;7457;50.960;6.830;2024-01-07T04:02:57;2.20;100.00
14733;DHT22;7457;50.960;6.830;2024-01-07T04:05:22;2.20;100.00
14733;DHT22;7457;50.960;6.830;2024-01-07T04:07:48;2.20;100.00
14733;DHT22;7457;50.960;6.830;2024-01-07T04:10:18;2.20;100.00
14733;DHT22;7457;50.960;6.830;2024-01-07T04:12:43;2.20;100.00
14733;DHT22;7457;50.960;6.830;2024-01-07T04:15:13;2.10;100.00
14733;DHT22;7457;50.960;6.830;2024-01-07T04:17:39;2.10;100.00
14733;DHT22;7457;50.960;6.830;2024-01-07T04:20:06;2.10;100.00
14733;DHT22;7457;50.960;6.830;2024-01-07T04:22:31;2.10;100.00
14733;DHT22;7457;50.960;6.830;2024-01-07T04:24:57;2.10;100.00
14733;DHT22;7457;50.960;6.830;2024-01-07T04:27:23;2.10;100.00
14733;DHT22;7457;50.960;6.830;2024-01-07T04:29:50;2.10;100.00
14733;DHT22;7457;50.960;6.830;2024-01-07T04:32:16;2.10;100.00
14733;DHT22;7457;50.960;6.830;2024-01-07T04:34:41;2.00;100.00
14733;DHT22;7457;50.960;6.830;2024-01-07T04:37:07;2.00;100.00
14733;DHT22;7457;50.960;6.830;2024-01-07T04:39:33;2.00;100.00
14733;DHT22;7457;50.960;6.830;2024-01-07T04:41:58;2.00;100.00
14733;DHT22;7457;50.960;6.830;2024-01-07T04:44:24;2.00;100.00
14733;DHT22;7457;50.960;6.830;2024-01-07T04:46:49;1.90;100.00
14733;DHT22;7457;50.960;6.830;2024-01-07T04:49:15;1.90;100.00
14733;DHT22;7457;50.960;6.830;2024-01-07T04:51:41;1.90;100.00
14733;DHT22;7457;50.960;6.830;2024-01-07T04:54:07;1.90;100.00
14733;DHT22;7457;50.960;6.830;2024-01-07T04:56:33;1.90;100.00
14733;DHT22;7457;50.960;6.830;2024-01-07T04:58:58;1.90;100.00
14733;DHT22;7457;50.960;6.830;2024-01-07T05:01:24;1.90;100.00
14733;DHT22;7457;50.960;6.830;2024-01-07T05:03:50;1.80;100.00
14733;DHT22;7457;50.960;6.830;2024-01-07T05:06:15;1.80;100.00
14733;DHT22;7457;50.960;6.830;2024-01-07T05:08:41;1.80;100.00
14733;DHT22;7457;50.960;6.830;2024-01-07T05:11:07;1.80;100.00
14733;DHT22;7457;50.960;6.830;2024-01-07T05:13:33;1.80;100.00
14733;DHT22;7457;50.960;6.830;2024-01-07T05:16:00;1.80;100.00
14733;DHT22;7457;50.960;6.830;2024-01-07T05:18:25;1.80;100.00
14733;DHT22;7457;50.960;6.830;2024-01-07T05:20:51;1.80;100.00
14733;DHT22;7457;50.960;6.830;2024-01-07T05:23:17;1.80;100.00
14733;DHT22;7457;50.960;6.830;2024-01-07T05:25:43;1.80;100.00
14733;DHT22;7457;50.960;6.830;2024-01-07T05:28:10;1.80;100.00
14733;DHT22;7457;50.960;6.830;2024-01-07T05:30:36;1.80;100.00
14733;DHT22;7457;50.960;6.830;2024-01-07T05:33:01;1.80;100.00
14733;DHT22;7457;50.960;6.830;2024-01-07T05:35:27;1.80;100.00
14733;DHT22;7457;50.960;6.830;2024-01-07T05:37:53;1.70;100.00
14733;DHT22;7457;50.960;6.830;2024-01-07T05:40:18;1.70;100.00
14733;DHT22;7457;50.960;6.830;2024-01-07T05:42:44;1.70;100.00
14733;DHT22;7457;50.960;6.830;2024-01-07T05:45:10;1.70;100.00
14733;DHT22;7457;50.960;6.830;2024-01-07T05:47:35;1.70;100.00
14733;DHT22;7457;50.960;6.830;2024-01-07T05:50:01;1.70;100.00
14733;DHT22;7457;50.960;6.830;2024-01-07T05:52:27;1.70;100.00
14733;DHT22;7457;50.960;6.830;2024-01-07T05:54:53;1.70;100.00
14733;DHT22;7457;50.960;6.830;2024-01-07T05:57:19;1.60;100.00
14733;DHT22;7457;50.960;6.830;2024-01-07T05:59:45;1.60;100.00
14733;DHT22;7457;50.960;6.830;2024-01-07T06:02:11;1.60;100.00
14733;DHT22;7457;50.960;6.830;2024-01-07T06:04:38;1.60;100.00
14733;DHT22;7457;50.960;6.830;2024-01-07T06:07:04;1.60;100.00
14733;DHT22;7457;50.960;6.830;2024-01-07T06:09:29;1.60;100.00
14733;DHT22;7457;50.960;6.830;2024-01-07T06:11:55;1.50;100.00
14733;DHT22;7457;50.960;6.830;2024-01-07T06:14:24;1.50;100.00
14733;DHT22;7457;50.960;6.830;2024-01-07T06:16:50;1.50;100.00
14733;DHT22;7457;50.960;6.830;2024-01-07T06:19:17;1.50;100.00
14733;DHT22;7457;50.960;6.830;2024-01-07T06:21:42;1.50;100.00
14733;DHT22;7457;50.960;6.830;2024-01-07T06:24:08;1.50;100.00
14733;DHT22;7457;50.960;6.830;2024-01-07T06:26:34;1.50;100.00
14733;DHT22;7457;50.960;6.830;2024-01-07T06:29:00;1.50;100.00
14733;DHT22;7457;50.960;6.830;2024-01-07T06:31:26;1.50;100.00
14733;DHT22;7457;50.960;6.830;2024-01-07T06:33:52;1.50;100.00
14733;DHT22;7457;50.960;6.830;2024-01-07T06:36:18;1.50;100.00
14733;DHT22;7457;50.960;6.830;2024-01-07T06:38:44;1.50;100.00
14733;DHT22;7457;50.960;6.830;2024-01-07T06:41:11;1.50;100.00
14733;DHT22;7457;50.960;6.830;2024-01-07T06:43:37;1.50;100.00
14733;DHT22;7457;50.960;6.830;2024-01-07T06:46:02;1.50;100.00
14733;DHT22;7457;50.960;6.830;2024-01-07T06:48:28;1.50;100.00
14733;DHT22;7457;50.960;6.830;2024-01-07T06:50:54;1.50;100.00
14733;DHT22;7457;50.960;6.830;2024-01-07T06:53:19;1.40;100.00
14733;DHT22;7457;50.960;6.830;2024-01-07T06:55:45;1.40;100.00
14733;DHT22;7457;50.960;6.830;2024-01-07T06:58:11;1.40;100.00
14733;DHT22;7457;50.960;6.830;2024-01-07T07:00:36;1.40;100.00
14733;DHT22;7457;50.960;6.830;2024-01-07T07:03:02;1.40;100.00
14733;DHT22;7457;50.960;6.830;2024-01-07T07:05:27;1.40;100.00
14733;DHT22;7457;50.960;6.830;2024-01-07T07:07:53;1.30;100.00
14733;DHT22;7457;50.960;6.830;2024-01-07T07:10:19;1.40;100.00
14733;DHT22;7457;50.960;6.830;2024-01-07T07:12:44;1.40;100.00
14733;DHT22;7457;50.960;6.830;2024-01-07T07:15:10;1.40;100.00
14733;DHT22;7457;50.960;6.830;2024-01-07T07:17:38;1.40;100.00
14733;DHT22;7457;50.960;6.830;2024-01-07T07:20:05;1.40;100.00
14733;DHT22;7457;50.960;6.830;2024-01-07T07:22:31;1.40;100.00
14733;DHT22;7457;50.960;6.830;2024-01-07T07:24:57;1.30;100.00
14733;DHT22;7457;50.960;6.830;2024-01-07T07:27:23;1.30;100.00
14733;DHT22;7457;50.960;6.830;2024-01-07T07:29:49;1.30;100.00
14733;DHT22;7457;50.960;6.830;2024-01-07T07:32:15;1.30;100.00
14733;DHT22;7457;50.960;6.830;2024-01-07T07:34:41;1.30;100.00
14733;DHT22;7457;50.960;6.830;2024-01-07T07:37:06;1.30;100.00
14733;DHT22;7457;50.960;6.830;2024-01-07T07:39:32;1.30;100.00
14733;DHT22;7457;50.960;6.830;2024-01-07T07:41:57;1.30;100.00
14733;DHT22;7457;50.960;6.830;2024-01-07T07:44:23;1.40;100.00
14733;DHT22;7457;50.960;6.830;2024-01-07T07:46:49;1.40;100.00
14733;DHT22;7457;50.960;6.830;2024-01-07T07:49:15;1.40;100.00
14733;DHT22;7457;50.960;6.830;2024-01-07T07:51:42;1.40;100.00
14733;DHT22;7457;50.960;6.830;2024-01-07T07:54:08;1.40;100.00
14733;DHT22;7457;50.960;6.830;2024-01-07T07:56:34;1.40;100.00
14733;DHT22;7457;50.960;6.830;2024-01-07T07:59:01;1.40;100.00
14733;DHT22;7457;50.960;6.830;2024-01-07T08:01:27;1.40;100.00
14733;DHT22;7457;50.960;6.830;2024-01-07T08:03:53;1.40;100.00
14733;DHT22;7457;50.960;6.830;2024-01-07T08:06:19;1.40;100.00
14733;DHT22;7457;50.960;6.830;2024-01-07T08:08:45;1.40;100.00
14733;DHT22;7457;50.960;6.830;2024-01-07T08:11:10;1.40;100.00
14733;DHT22;7457;50.960;6.830;2024-01-07T08:13:37;1.40;100.00
14733;DHT22;7457;50.960;6.830;2024-01-07T08:16:04;1.40;100.00
14733;DHT22;7457;50.960;6.830;2024-01-07T08:18:30;1.40;100.00
14733;DHT22;7457;50.960;6.830;2024-01-07T08:20:56;1.40;100.00
14733;DHT22;7457;50.960;6.830;2024-01-07T08:23:22;1.40;100.00
14733;DHT22;7457;50.960;6.830;2024-01-07T08:25:48;1.40;100.00
14733;DHT22;7457;50.960;6.830;2024-01-07T08:28:14;1.40;100.00
14733;DHT22;7457;50.960;6.830;2024-01-07T08:30:39;1.40;100.00
14733;DHT22;7457;50.960;6.830;2024-01-07T08:33:05;1.40;100.00
14733;DHT22;7457;50.960;6.830;2024-01-07T08:35:30;1.40;100.00
14733;DHT22;7457;50.960;6.830;2024-01-07T08:37:56;1.40;100.00
14733;DHT22;7457;50.960;6.830;2024-01-07T08:40:22;1.40;100.00
14733;DHT22;7457;50.960;6.830;2024-01-07T08:42:47;1.40;100.00
14733;DHT22;7457;50.960;6.830;2024-01-07T08:45:13;1.40;100.00
14733;DHT22;7457;50.960;6.830;2024-01-07T08:47:39;1.40;100.00
14733;DHT22;7457;50.960;6.830;2024-01-07T08:50:05;1.40;100.00
14733;DHT22;7457;50.960;6.830;2024-01-07T08:52:31;1.40;100.00
14733;DHT22;7457;50.960;6.830;2024-01-07T08:54:56;1.40;100.00
14733;DHT22;7457;50.960;6.830;2024-01-07T08:57:22;1.40;100.00
14733;DHT22;7457;50.960;6.830;2024-01-07T08:59:48;1.40;100.00
14733;DHT22;7457;50.960;6.830;2024-01-07T09:02:13;1.40;100.00
14733;DHT22;7457;50.960;6.830;2024-01-07T09:04:39;1.40;100.00
14733;DHT22;7457;50.960;6.830;2024-01-07T09:07:05;1.40;100.00
14733;DHT22;7457;50.960;6.830;2024-01-07T09:09:30;1.40;100.00
14733;DHT22;7457;50.960;6.830;2024-01-07T09:11:56;1.30;100.00
14733;DHT22;7457;50.960;6.830;2024-01-07T09:14:24;1.30;100.00
14733;DHT22;7457;50.960;6.830;2024-01-07T09:16:50;1.30;100.00
14733;DHT22;7457;50.960;6.830;2024-01-07T09:19:16;1.30;100.00
14733;DHT22;7457;50.960;6.830;2024-01-07T09:21:43;1.30;100.00
14733;DHT22;7457;50.960;6.830;2024-01-07T09:24:09;1.30;100.00
14733;DHT22;7457;50.960;6.830;2024-01-07T09:26:35;1.20;100.00
14733;DHT22;7457;50.960;6.830;2024-01-07T09:29:00;1.20;100.00
14733;DHT22;7457;50.960;6.830;2024-01-07T09:31:27;1.20;100.00
14733;DHT22;7457;50.960;6.830;2024-01-07T09:33:52;1.20;100.00
14733;DHT22;7457;50.960;6.830;2024-01-07T09:36:18;1.20;100.00
14733;DHT22;7457;50.960;6.830;2024-01-07T09:38:44;1.20;100.00
14733;DHT22;7457;50.960;6.830;2024-01-07T09:41:09;1.20;100.00
14733;DHT22;7457;50.960;6.830;2024-01-07T09:43:35;1.20;100.00
14733;DHT22;7457;50.960;6.830;2024-01-07T09:46:03;1.20;100.00
14733;DHT22;7457;50.960;6.830;2024-01-07T09:48:29;1.20;100.00
14733;DHT22;7457;50.960;6.830;2024-01-07T09:50:57;1.20;100.00
14733;DHT22;7457;50.960;6.830;2024-01-07T09:53:25;1.20;100.00
14733;DHT22;7457;50.960;6.830;2024-01-07T09:58:31;1.20;100.00
14733;DHT22;7457;50.960;6.830;2024-01-07T10:00:57;1.20;100.00
14733;DHT22;7457;50.960;6.830;2024-01-07T10:03:23;1.20;100.00
14733;DHT22;7457;50.960;6.830;2024-01-07T10:05:48;1.10;100.00
14733;DHT22;7457;50.960;6.830;2024-01-07T10:08:14;1.10;100.00
14733;DHT22;7457;50.960;6.830;2024-01-07T10:10:40;1.10;100.00
14733;DHT22;7457;50.960;6.830;2024-01-07T10:13:06;1.10;100.00
14733;DHT22;7457;50.960;6.830;2024-01-07T10:15:34;1.10;100.00
14733;DHT22;7457;50.960;6.830;2024-01-07T10:18:07;1.10;100.00
14733;DHT22;7457;50.960;6.830;2024-01-07T10:20:33;1.10;100.00
14733;DHT22;7457;50.960;6.830;2024-01-07T10:23:00;1.00;100.00
14733;DHT22;7457;50.960;6.830;2024-01-07T10:25:26;1.00;100.00
14733;DHT22;7457;50.960;6.830;2024-01-07T10:27:52;1.00;100.00
14733;DHT22;7457;50.960;6.830;2024-01-07T10:30:17;0.90;100.00
14733;DHT22;7457;50.960;6.830;2024-01-07T10:32:43;0.80;100.00
14733;DHT22;7457;50.960;6.830;2024-01-07T10:35:13;0.70;100.00
14733;DHT22;7457;50.960;6.830;2024-01-07T10:37:42;0.60;100.00
14733;DHT22;7457;50.960;6.830;2024-01-07T10:40:11;0.50;100.00
14733;DHT22;7457;50.960;6.830;2024-01-07T10:42:38;0.50;100.00
14733;DHT22;7457;50.960;6.830;2024-01-07T10:45:04;0.50;100.00
14733;DHT22;7457;50.960;6.830;2024-01-07T10:47:31;0.50;100.00
14733;DHT22;7457;50.960;6.830;2024-01-07T10:49:59;0.50;100.00
14733;DHT22;7457;50.960;6.830;2024-01-07T10:52:27;0.50;100.00
14733;DHT22;7457;50.960;6.830;2024-01-07T10:54:56;0.60;100.00
14733;DHT22;7457;50.960;6.830;2024-01-07T10:57:41;0.60;100.00
14733;DHT22;7457;50.960;6.830;2024-01-07T11:00:09;0.70;100.00
14733;DHT22;7457;50.960;6.830;2024-01-07T11:05:54;0.80;100.00
14733;DHT22;7457;50.960;6.830;2024-01-07T11:08:39;0.80;100.00
14733;DHT22;7457;50.960;6.830;2024-01-07T11:11:12;0.80;100.00
14733;DHT22;7457;50.960;6.830;2024-01-07T11:13:40;0.80;100.00
14733;DHT22;7457;50.960;6.830;2024-01-07T11:16:09;0.80;100.00
14733;DHT22;7457;50.960;6.830;2024-01-07T11:18:46;0.80;100.00
14733;DHT22;7457;50.960;6.830;2024-01-07T11:21:21;0.80;100.00
14733;DHT22;7457;50.960;6.830;2024-01-07T11:23:47;0.80;100.00
14733;DHT22;7457;50.960;6.830;2024-01-07T11:26:12;0.90;100.00
14733;DHT22;7457;50.960;6.830;2024-01-07T11:28:56;0.90;100.00
14733;DHT22;7457;50.960;6.830;2024-01-07T11:31:42;1.00;100.00
14733;DHT22;7457;50.960;6.830;2024-01-07T11:34:08;1.10;100.00
14733;DHT22;7457;50.960;6.830;2024-01-07T11:36:38;1.10;100.00
14733;DHT22;7457;50.960;6.830;2024-01-07T11:39:05;1.10;100.00
14733;DHT22;7457;50.960;6.830;2024-01-07T11:41:35;1.10;100.00
14733;DHT22;7457;50.960;6.830;2024-01-07T11:44:01;1.00;100.00
14733;DHT22;7457;50.960;6.830;2024-01-07T11:46:27;1.00;100.00
14733;DHT22;7457;50.960;6.830;2024-01-07T11:48:54;1.00;100.00
14733;DHT22;7457;50.960;6.830;2024-01-07T11:51:31;0.90;100.00
14733;DHT22;7457;50.960;6.830;2024-01-07T11:54:00;0.90;100.00
14733;DHT22;7457;50.960;6.830;2024-01-07T11:56:26;0.80;100.00
14733;DHT22;7457;50.960;6.830;2024-01-07T11:58:52;0.90;100.00
14733;DHT22;7457;50.960;6.830;2024-01-07T12:01:18;0.80;100.00
14733;DHT22;7457;50.960;6.830;2024-01-07T12:03:44;0.80;100.00
14733;DHT22;7457;50.960;6.830;2024-01-07T12:06:11;0.80;100.00
14733;DHT22;7457;50.960;6.830;2024-01-07T12:08:43;0.90;100.00
14733;DHT22;7457;50.960;6.830;2024-01-07T12:11:12;0.90;100.00
14733;DHT22;7457;50.960;6.830;2024-01-07T12:13:38;0.90;100.00
14733;DHT22;7457;50.960;6.830;2024-01-07T12:16:08;0.80;100.00
14733;DHT22;7457;50.960;6.830;2024-01-07T12:18:36;0.80;100.00
14733;DHT22;7457;50.960;6.830;2024-01-07T12:21:02;0.80;100.00
14733;DHT22;7457;50.960;6.830;2024-01-07T12:23:28;0.80;100.00
14733;DHT22;7457;50.960;6.830;2024-01-07T12:25:54;0.80;100.00
14733;DHT22;7457;50.960;6.830;2024-01-07T12:28:21;0.80;100.00
14733;DHT22;7457;50.960;6.830;2024-01-07T12:30:49;0.80;100.00
14733;DHT22;7457;50.960;6.830;2024-01-07T12:33:19;0.80;100.00
14733;DHT22;7457;50.960;6.830;2024-01-07T12:35:48;0.80;100.00
14733;DHT22;7457;50.960;6.830;2024-01-07T12:38:13;0.80;100.00
14733;DHT22;7457;50.960;6.830;2024-01-07T12:40:40;0.90;100.00
14733;DHT22;7457;50.960;6.830;2024-01-07T12:43:06;0.90;100.00
14733;DHT22;7457;50.960;6.830;2024-01-07T12:45:34;0.90;100.00
14733;DHT22;7457;50.960;6.830;2024-01-07T12:48:00;0.90;100.00
14733;DHT22;7457;50.960;6.830;2024-01-07T12:50:28;1.00;100.00
14733;DHT22;7457;50.960;6.830;2024-01-07T12:52:55;1.00;100.00
14733;DHT22;7457;50.960;6.830;2024-01-07T12:55:22;1.00;100.00
14733;DHT22;7457;50.960;6.830;2024-01-07T12:57:47;1.00;100.00
14733;DHT22;7457;50.960;6.830;2024-01-07T13:00:13;1.00;99.60
14733;DHT22;7457;50.960;6.830;2024-01-07T13:02:39;0.90;99.20
14733;DHT22;7457;50.960;6.830;2024-01-07T13:05:06;0.90;99.30
14733;DHT22;7457;50.960;6.830;2024-01-07T13:07:32;0.90;99.20
14733;DHT22;7457;50.960;6.830;2024-01-07T13:09:58;0.90;98.90
14733;DHT22;7457;50.960;6.830;2024-01-07T13:12:24;0.80;99.00
14733;DHT22;7457;50.960;6.830;2024-01-07T13:14:50;0.80;99.00
14733;DHT22;7457;50.960;6.830;2024-01-07T13:17:15;0.80;98.90
14733;DHT22;7457;50.960;6.830;2024-01-07T13:19:41;0.80;98.80
14733;DHT22;7457;50.960;6.830;2024-01-07T13:22:07;0.80;98.30
14733;DHT22;7457;50.960;6.830;2024-01-07T13:24:33;0.80;97.80
14733;DHT22;7457;50.960;6.830;2024-01-07T13:26:59;0.70;97.10
14733;DHT22;7457;50.960;6.830;2024-01-07T13:29:24;0.70;96.90
14733;DHT22;7457;50.960;6.830;2024-01-07T13:31:50;0.70;96.90
14733;DHT22;7457;50.960;6.830;2024-01-07T13:34:16;0.60;97.10
14733;DHT22;7457;50.960;6.830;2024-01-07T13:36:46;0.70;97.50
14733;DHT22;7457;50.960;6.830;2024-01-07T13:39:12;0.60;97.30
14733;DHT22;7457;50.960;6.830;2024-01-07T13:41:38;0.60;96.70
14733;DHT22;7457;50.960;6.830;2024-01-07T13:44:04;0.60;96.70
14733;DHT22;7457;50.960;6.830;2024-01-07T13:46:30;0.60;96.00
14733;DHT22;7457;50.960;6.830;2024-01-07T13:48:55;0.50;96.00
14733;DHT22;7457;50.960;6.830;2024-01-07T13:51:21;0.50;95.90
14733;DHT22;7457;50.960;6.830;2024-01-07T13:53:47;0.50;95.60
14733;DHT22;7457;50.960;6.830;2024-01-07T13:56:13;0.40;95.40
14733;DHT22;7457;50.960;6.830;2024-01-07T13:58:38;0.40;95.40
14733;DHT22;7457;50.960;6.830;2024-01-07T14:01:04;0.40;95.10
14733;DHT22;7457;50.960;6.830;2024-01-07T14:03:32;0.30;94.50
14733;DHT22;7457;50.960;6.830;2024-01-07T14:05:58;0.30;94.70
14733;DHT22;7457;50.960;6.830;2024-01-07T14:08:25;0.20;94.90
14733;DHT22;7457;50.960;6.830;2024-01-07T14:10:51;0.20;94.90
14733;DHT22;7457;50.960;6.830;2024-01-07T14:13:17;0.10;94.90
14733;DHT22;7457;50.960;6.830;2024-01-07T14:15:43;0.10;94.80
14733;DHT22;7457;50.960;6.830;2024-01-07T14:18:09;0.10;94.80
14733;DHT22;7457;50.960;6.830;2024-01-07T14:20:35;0.00;94.70
14733;DHT22;7457;50.960;6.830;2024-01-07T14:23:02;0.00;94.10
14733;DHT22;7457;50.960;6.830;2024-01-07T14:25:28;0.00;93.90
14733;DHT22;7457;50.960;6.830;2024-01-07T14:27:53;0.00;93.60
14733;DHT22;7457;50.960;6.830;2024-01-07T14:30:19;-0.10;93.60
14733;DHT22;7457;50.960;6.830;2024-01-07T14:32:44;-0.10;93.70
14733;DHT22;7457;50.960;6.830;2024-01-07T14:35:13;-0.10;93.70
14733;DHT22;7457;50.960;6.830;2024-01-07T14:37:39;-0.20;93.90
14733;DHT22;7457;50.960;6.830;2024-01-07T14:40:06;-0.10;93.10
14733;DHT22;7457;50.960;6.830;2024-01-07T14:42:32;-0.20;92.40
14733;DHT22;7457;50.960;6.830;2024-01-07T14:44:57;-0.20;92.00
14733;DHT22;7457;50.960;6.830;2024-01-07T14:47:23;-0.20;91.70
14733;DHT22;7457;50.960;6.830;2024-01-07T14:49:49;-0.30;91.20
14733;DHT22;7457;50.960;6.830;2024-01-07T14:52:14;-0.30;91.30
14733;DHT22;7457;50.960;6.830;2024-01-07T14:54:40;-0.30;91.50
14733;DHT22;7457;50.960;6.830;2024-01-07T14:57:06;-0.30;90.70
14733;DHT22;7457;50.960;6.830;2024-01-07T14:59:34;-0.40;90.50
14733;DHT22;7457;50.960;6.830;2024-01-07T15:02:01;-0.40;90.10
14733;DHT22;7457;50.960;6.830;2024-01-07T15:04:27;-0.40;89.80
14733;DHT22;7457;50.960;6.830;2024-01-07T15:06:53;-0.40;89.30
14733;DHT22;7457;50.960;6.830;2024-01-07T15:09:19;-0.50;88.60
14733;DHT22;7457;50.960;6.830;2024-01-07T15:11:46;-0.50;88.90
14733;DHT22;7457;50.960;6.830;2024-01-07T15:14:14;-0.50;88.50
14733;DHT22;7457;50.960;6.830;2024-01-07T15:16:40;-0.50;87.90
14733;DHT22;7457;50.960;6.830;2024-01-07T15:19:05;-0.50;87.70
14733;DHT22;7457;50.960;6.830;2024-01-07T15:21:31;-0.50;87.40
14733;DHT22;7457;50.960;6.830;2024-01-07T15:23:57;-0.50;87.30
14733;DHT22;7457;50.960;6.830;2024-01-07T15:26:22;-0.60;87.50
14733;DHT22;7457;50.960;6.830;2024-01-07T15:28:48;-0.50;87.30
14733;DHT22;7457;50.960;6.830;2024-01-07T15:31:14;-0.50;86.60
14733;DHT22;7457;50.960;6.830;2024-01-07T15:33:39;-0.60;86.60
14733;DHT22;7457;50.960;6.830;2024-01-07T15:36:06;-0.60;86.10
14733;DHT22;7457;50.960;6.830;2024-01-07T15:38:31;-0.60;85.80
14733;DHT22;7457;50.960;6.830;2024-01-07T15:40:57;-0.60;85.70
14733;DHT22;7457;50.960;6.830;2024-01-07T15:43:22;-0.70;85.80
14733;DHT22;7457;50.960;6.830;2024-01-07T15:45:48;-0.60;85.60
14733;DHT22;7457;50.960;6.830;2024-01-07T15:48:14;-0.70;85.50